Time;durP1;ratioP1;P1;durP2;ratioP2;P2;SDS_P1;SDS_P2;PMS_P1;PMS_P2;Temp;Humidity;BMP_temperature;BMP_pressure;BME280_temperature;BME280_humidity;BME280_pressure;Samples;Min_cycle;Max_cycle;Signal;HPM_P1;HPM_P2
2022/03/16 00:00:08;;;;;;;6.75;6.15;;;9.50;99.90;;;;;;5048686;28;20127;-59
2022/03/16 00:02:41;;;;;;;7.63;6.07;;;9.50;99.90;;;;;;5049643;28;20052;-59
2022/03/16 00:05:08;;;;;;;6.93;6.25;;;9.50;99.90;;;;;;5053718;28;20075;-59
2022/03/16 00:07:35;;;;;;;7.28;6.57;;;9.50;99.90;;;;;;5037114;28;20048;-59
2022/03/16 00:10:03;;;;;;;7.22;6.53;;;9.40;99.90;;;;;;5053659;28;20156;-59
2022/03/16 00:12:29;;;;;;;6.43;5.82;;;9.40;99.90;;;;;;5048588;28;20104;-60
2022/03/16 00:14:56;;;;;;;7.13;6.43;;;9.40;99.90;;;;;;5048943;28;20045;-59
2022/03/16 00:17:23;;;;;;;7.55;5.97;;;9.40;99.90;;;;;;5047437;28;20044;-59
2022/03/16 00:19:50;;;;;;;7.07;6.28;;;9.40;99.90;;;;;;5047712;28;20041;-59
2022/03/16 00:22:17;;;;;;;7.30;6.53;;;9.40;99.90;;;;;;5054902;28;20087;-59
2022/03/16 00:24:44;;;;;;;6.78;6.07;;;9.30;99.90;;;;;;5032194;28;20140;-59
2022/03/16 00:27:10;;;;;;;6.70;6.10;;;9.30;99.90;;;;;;5047862;28;20092;-59
2022/03/16 00:29:37;;;;;;;6.57;5.63;;;9.30;99.90;;;;;;5047251;28;20530;-59
2022/03/16 00:32:04;;;;;;;6.75;6.03;;;9.30;99.90;;;;;;5036626;28;20136;-59
2022/03/16 00:34:31;;;;;;;6.45;5.80;;;9.20;99.90;;;;;;5053678;28;21007;-59
2022/03/16 00:36:59;;;;;;;6.90;6.20;;;9.20;99.90;;;;;;5047767;28;20518;-59
2022/03/16 00:39:26;;;;;;;6.53;5.93;;;9.20;99.90;;;;;;5033200;28;20152;-59
2022/03/16 00:41:53;;;;;;;6.55;5.80;;;9.20;99.90;;;;;;5053825;28;20127;-59
2022/03/16 00:44:19;;;;;;;6.68;5.60;;;9.10;99.90;;;;;;5054397;28;20084;-59
2022/03/16 00:46:46;;;;;;;7.13;5.85;;;9.10;99.90;;;;;;5036590;28;20040;-59
2022/03/16 00:49:13;;;;;;;6.95;6.28;;;9.10;99.90;;;;;;5053804;28;20053;-59
2022/03/16 00:51:40;;;;;;;6.90;6.20;;;9.10;99.90;;;;;;5046115;28;20094;-59
2022/03/16 00:54:07;;;;;;;7.80;6.68;;;9.10;99.90;;;;;;5053843;28;20084;-59
2022/03/16 00:56:34;;;;;;;8.10;6.15;;;9.00;99.90;;;;;;5053836;28;20119;-59
2022/03/16 00:59:00;;;;;;;6.35;5.75;;;9.00;99.90;;;;;;5035961;28;20048;-59
2022/03/16 01:01:27;;;;;;;7.50;6.63;;;9.00;99.90;;;;;;5048412;28;20490;-59
2022/03/16 01:03:56;;;;;;;6.50;5.82;;;9.00;99.90;;;;;;5046096;28;20052;-59
2022/03/16 01:06:23;;;;;;;6.22;5.45;;;9.00;99.90;;;;;;5053979;28;20334;-59
2022/03/16 01:08:50;;;;;;;6.22;5.63;;;9.00;99.90;;;;;;5051341;28;20689;-59
2022/03/16 01:11:16;;;;;;;6.32;5.72;;;9.00;99.90;;;;;;5048702;28;20529;-58
2022/03/16 01:13:43;;;;;;;6.72;6.13;;;8.90;99.90;;;;;;5053499;28;20136;-59
2022/03/16 01:16:10;;;;;;;7.47;6.75;;;8.90;99.90;;;;;;5048312;28;20147;-59
2022/03/16 01:18:37;;;;;;;6.43;5.82;;;8.90;99.90;;;;;;5053498;28;20108;-59
2022/03/16 01:21:05;;;;;;;6.68;6.05;;;8.90;99.90;;;;;;5052766;28;20037;-59
2022/03/16 01:23:33;;;;;;;6.70;5.95;;;8.90;99.90;;;;;;5050176;28;20149;-59
2022/03/16 01:25:59;;;;;;;6.50;5.82;;;8.90;99.90;;;;;;5055917;28;20076;-59
2022/03/16 01:28:26;;;;;;;6.55;5.80;;;8.80;99.90;;;;;;5057010;28;20182;-59
2022/03/16 01:30:53;;;;;;;6.88;6.03;;;8.90;99.90;;;;;;5056605;28;20403;-59
2022/03/16 01:33:20;;;;;;;6.63;5.97;;;8.90;99.90;;;;;;5038302;28;20097;-59
2022/03/16 01:35:47;;;;;;;8.45;6.97;;;9.00;99.90;;;;;;5039261;28;20068;-59
2022/03/16 01:38:13;;;;;;;6.43;5.72;;;9.00;99.90;;;;;;5055570;28;20053;-60
2022/03/16 01:40:40;;;;;;;6.80;6.07;;;9.00;99.90;;;;;;5050022;28;20544;-60
2022/03/16 01:43:07;;;;;;;7.78;6.97;;;9.10;99.90;;;;;;5051116;28;20144;-59
2022/03/16 01:45:33;;;;;;;7.40;6.60;;;9.20;99.90;;;;;;5055010;28;20072;-59
2022/03/16 01:48:00;;;;;;;8.82;7.25;;;9.20;99.90;;;;;;5049550;28;20135;-59
2022/03/16 01:50:27;;;;;;;6.88;6.18;;;9.30;99.90;;;;;;5050878;28;20037;-60
2022/03/16 01:52:54;;;;;;;7.50;6.80;;;9.30;99.90;;;;;;5053981;28;20102;-59
2022/03/16 01:55:20;;;;;;;6.88;6.22;;;9.40;99.90;;;;;;5054300;28;20079;-59
2022/03/16 01:57:47;;;;;;;7.43;6.63;;;9.40;99.90;;;;;;5036569;28;20420;-59
2022/03/16 02:00:15;;;;;;;6.55;5.93;;;9.50;99.90;;;;;;5054375;28;20097;-59
2022/03/16 02:02:41;;;;;;;8.10;7.22;;;9.50;99.90;;;;;;5057883;28;20041;-59
2022/03/16 02:05:08;;;;;;;7.82;7.03;;;9.50;99.90;;;;;;5057570;28;20056;-58
2022/03/16 02:07:37;;;;;;;7.13;6.43;;;9.60;99.90;;;;;;5061367;28;20080;-59
2022/03/16 02:10:04;;;;;;;7.68;6.97;;;9.60;99.90;;;;;;5060004;28;20083;-59
2022/03/16 02:12:44;;;;;;;7.22;6.53;;;9.60;99.90;;;;;;5036683;28;20064;-58
2022/03/16 02:15:11;;;;;;;7.78;7.07;;;9.60;99.90;;;;;;5042776;28;20426;-58
2022/03/16 02:17:38;;;;;;;7.95;7.13;;;9.60;99.90;;;;;;5060427;28;20135;-59
2022/03/16 02:20:06;;;;;;;7.30;6.70;;;9.60;99.90;;;;;;5058995;28;21627;-59
2022/03/16 02:22:48;;;;;;;6.68;6.03;;;9.60;99.90;;;;;;5060736;28;20098;-59
2022/03/16 02:25:19;;;;;;;6.72;6.13;;;9.60;99.90;;;;;;5038029;28;20079;-59
2022/03/16 02:27:46;;;;;;;6.70;6.00;;;9.60;99.90;;;;;;5035705;28;20127;-59
2022/03/16 02:30:13;;;;;;;6.72;6.13;;;9.60;99.90;;;;;;5054920;28;20099;-59
2022/03/16 02:32:40;;;;;;;6.57;5.93;;;9.60;99.90;;;;;;5060029;28;20076;-59
2022/03/16 02:35:07;;;;;;;6.65;5.95;;;9.60;99.90;;;;;;5057090;28;20123;-59
2022/03/16 02:37:38;;;;;;;6.35;5.75;;;9.60;99.90;;;;;;5059263;28;20044;-59
2022/03/16 02:40:08;;;;;;;6.60;5.63;;;9.60;99.90;;;;;;5057926;28;20566;-59
2022/03/16 02:42:35;;;;;;;6.15;5.55;;;9.60;99.90;;;;;;5054537;28;20135;-60
2022/03/16 02:45:02;;;;;;;5.90;5.40;;;9.70;99.90;;;;;;5056065;28;20132;-59
2022/03/16 02:47:29;;;;;;;6.50;5.88;;;9.70;99.90;;;;;;5042533;28;20549;-59
2022/03/16 02:49:56;;;;;;;5.85;5.25;;;9.70;99.90;;;;;;5057706;28;20712;-59
2022/03/16 02:52:22;;;;;;;6.75;6.05;;;9.70;99.90;;;;;;5060195;28;20139;-59
2022/03/16 02:54:49;;;;;;;5.63;5.00;;;9.70;99.90;;;;;;5041867;28;20123;-58
2022/03/16 02:57:16;;;;;;;6.25;5.65;;;9.70;99.90;;;;;;5061242;28;20131;-59
2022/03/16 02:59:43;;;;;;;5.90;5.35;;;9.70;99.90;;;;;;5041745;28;20053;-59
2022/03/16 03:02:11;;;;;;;5.38;4.88;;;9.70;99.90;;;;;;5058966;28;20072;-59
2022/03/16 03:04:38;;;;;;;6.47;5.85;;;9.70;99.90;;;;;;5040846;28;20045;-59
2022/03/16 03:07:05;;;;;;;5.80;5.18;;;9.70;99.90;;;;;;5041693;28;20068;-59
2022/03/16 03:09:32;;;;;;;5.78;5.20;;;9.70;99.90;;;;;;5059710;28;20076;-59
2022/03/16 03:11:59;;;;;;;6.13;5.53;;;9.80;99.90;;;;;;5060785;28;20446;-59
2022/03/16 03:14:29;;;;;;;6.45;5.55;;;9.80;99.90;;;;;;5051563;28;20495;-59
2022/03/16 03:16:57;;;;;;;5.43;4.93;;;9.80;99.90;;;;;;5059910;28;20083;-59
2022/03/16 03:19:24;;;;;;;5.95;5.38;;;9.80;99.90;;;;;;5041213;28;20131;-59
2022/03/16 03:21:51;;;;;;;5.53;5.03;;;9.70;99.90;;;;;;5059274;28;20080;-60
2022/03/16 03:24:18;;;;;;;5.57;5.07;;;9.80;99.90;;;;;;5053765;28;20550;-59
2022/03/16 03:26:45;;;;;;;5.53;5.03;;;9.80;99.90;;;;;;5052658;28;20045;-59
2022/03/16 03:29:11;;;;;;;6.55;5.57;;;9.80;99.90;;;;;;5033716;28;20080;-59
2022/03/16 03:31:38;;;;;;;5.85;5.28;;;9.80;99.90;;;;;;5058710;28;20041;-59
2022/03/16 03:34:05;;;;;;;5.93;5.43;;;9.70;99.90;;;;;;5057845;28;20470;-59
2022/03/16 03:36:32;;;;;;;6.38;5.18;;;9.80;99.90;;;;;;5059153;28;20072;-59
2022/03/16 03:38:58;;;;;;;5.78;5.22;;;9.80;99.90;;;;;;5056850;28;20496;-59
2022/03/16 03:41:25;;;;;;;5.90;5.30;;;9.80;99.90;;;;;;5051995;28;20076;-59
2022/03/16 03:43:52;;;;;;;5.35;4.85;;;9.80;99.90;;;;;;5052599;28;20131;-59
2022/03/16 03:46:18;;;;;;;5.82;5.32;;;9.80;99.90;;;;;;5052880;28;20630;-60
2022/03/16 03:48:45;;;;;;;5.93;5.38;;;9.80;99.90;;;;;;5052532;28;20053;-59
2022/03/16 03:51:12;;;;;;;5.88;5.20;;;9.80;99.90;;;;;;5058661;28;20143;-58
2022/03/16 03:53:39;;;;;;;5.60;5.10;;;9.90;99.90;;;;;;5059478;28;20255;-59
2022/03/16 03:56:06;;;;;;;5.68;5.18;;;9.90;99.90;;;;;;5058771;28;20096;-59
2022/03/16 03:58:33;;;;;;;5.82;5.25;;;9.90;99.90;;;;;;5058412;28;20072;-59
2022/03/16 04:00:59;;;;;;;6.35;5.75;;;9.90;99.90;;;;;;5058244;28;20153;-59
2022/03/16 04:03:26;;;;;;;6.10;5.60;;;9.90;99.90;;;;;;5055062;28;20091;-59
2022/03/16 04:05:53;;;;;;;5.80;5.30;;;9.90;99.90;;;;;;5058518;28;20045;-60
2022/03/16 04:08:20;;;;;;;6.10;5.60;;;9.90;99.90;;;;;;5058248;28;20052;-59
2022/03/16 04:10:46;;;;;;;6.03;5.50;;;9.90;99.90;;;;;;5058373;28;20124;-59
2022/03/16 04:13:13;;;;;;;5.95;5.45;;;9.90;99.90;;;;;;5055645;28;20135;-59
2022/03/16 04:15:40;;;;;;;6.93;6.32;;;9.90;99.90;;;;;;5050023;28;20132;-59
2022/03/16 04:18:07;;;;;;;6.60;6.00;;;9.90;99.90;;;;;;5050938;28;20124;-59
2022/03/16 04:20:33;;;;;;;6.82;6.22;;;9.90;99.90;;;;;;5050734;28;20095;-59
2022/03/16 04:23:00;;;;;;;6.28;5.68;;;9.90;99.90;;;;;;5035961;28;20068;-59
2022/03/16 04:25:27;;;;;;;5.75;5.18;;;9.90;99.90;;;;;;5057636;28;20054;-59
2022/03/16 04:27:54;;;;;;;5.90;5.40;;;9.90;99.90;;;;;;5050623;28;20735;-60
2022/03/16 04:30:20;;;;;;;6.40;5.78;;;9.90;99.90;;;;;;5050506;28;20139;-59
2022/03/16 04:32:51;;;;;;;6.88;6.20;;;10.00;99.90;;;;;;5055984;28;20072;-60
2022/03/16 04:35:19;;;;;;;6.63;6.03;;;10.00;99.90;;;;;;5056382;28;20040;-59
2022/03/16 04:37:47;;;;;;;7.45;6.68;;;9.90;99.90;;;;;;5058084;28;20496;-59
2022/03/16 04:40:14;;;;;;;6.72;6.13;;;10.00;99.90;;;;;;5056990;28;20087;-59
2022/03/16 04:42:40;;;;;;;6.80;6.20;;;9.90;99.90;;;;;;5057613;28;20124;-59
2022/03/16 04:45:08;;;;;;;6.53;5.93;;;9.90;99.90;;;;;;5050247;28;20510;-59
2022/03/16 04:47:34;;;;;;;6.32;5.78;;;9.90;99.90;;;;;;5057603;28;20135;-60
2022/03/16 04:50:01;;;;;;;7.55;6.75;;;9.90;99.90;;;;;;5055395;28;20130;-58
2022/03/16 04:52:28;;;;;;;6.57;5.97;;;9.90;99.90;;;;;;5055023;28;20151;-59
2022/03/16 04:54:55;;;;;;;6.97;6.30;;;9.90;99.90;;;;;;5053790;28;20083;-59
2022/03/16 04:57:21;;;;;;;6.35;5.75;;;9.90;99.90;;;;;;5054937;28;20045;-59
2022/03/16 04:59:48;;;;;;;7.63;6.93;;;9.90;99.90;;;;;;5057266;28;20212;-58
2022/03/16 05:02:15;;;;;;;6.53;5.93;;;9.90;99.90;;;;;;5053285;28;20110;-58
2022/03/16 05:04:41;;;;;;;6.75;6.15;;;9.90;99.90;;;;;;5032132;28;20168;-59
2022/03/16 05:07:08;;;;;;;6.90;6.30;;;9.90;99.90;;;;;;5035288;28;20128;-59
2022/03/16 05:09:35;;;;;;;6.90;6.30;;;10.00;99.90;;;;;;5049643;28;20131;-59
2022/03/16 05:12:02;;;;;;;6.63;6.03;;;9.90;99.90;;;;;;5051162;28;20080;-59
2022/03/16 05:14:29;;;;;;;7.00;6.28;;;9.90;99.90;;;;;;5050702;28;20124;-60
2022/03/16 05:16:56;;;;;;;6.57;5.97;;;9.90;99.90;;;;;;5050628;28;20425;-59
2022/03/16 05:19:25;;;;;;;6.90;6.20;;;9.90;99.90;;;;;;5049108;28;20068;-59
2022/03/16 05:21:52;;;;;;;7.43;6.72;;;9.90;99.90;;;;;;5049658;28;20072;-59
2022/03/16 05:24:22;;;;;;;7.45;6.75;;;9.90;99.90;;;;;;5057179;28;20571;-59
2022/03/16 05:26:49;;;;;;;6.88;6.20;;;9.90;99.90;;;;;;5056926;28;20056;-59
2022/03/16 05:29:16;;;;;;;7.45;6.82;;;9.90;99.90;;;;;;5056719;28;20176;-59
2022/03/16 05:31:43;;;;;;;7.30;6.60;;;10.00;99.90;;;;;;5037736;28;20602;-59
2022/03/16 05:34:10;;;;;;;7.07;6.43;;;9.90;99.90;;;;;;5050352;28;20556;-59
2022/03/16 05:36:37;;;;;;;7.32;6.68;;;10.00;99.90;;;;;;5049759;28;20107;-59
2022/03/16 05:39:06;;;;;;;6.72;6.07;;;10.00;99.90;;;;;;5054745;28;20059;-60
2022/03/16 05:41:33;;;;;;;6.80;6.20;;;10.00;99.90;;;;;;5057443;28;20099;-59
2022/03/16 05:44:00;;;;;;;6.40;5.80;;;10.00;99.90;;;;;;5057055;28;20083;-60
2022/03/16 05:46:27;;;;;;;7.40;6.70;;;10.00;99.90;;;;;;5055181;28;20535;-59
2022/03/16 05:48:53;;;;;;;7.18;6.47;;;10.00;99.90;;;;;;5047493;28;20061;-59
2022/03/16 05:51:20;;;;;;;7.38;6.78;;;10.00;99.90;;;;;;5053729;28;20127;-59
2022/03/16 05:53:47;;;;;;;7.63;6.82;;;10.00;99.90;;;;;;5060557;28;20135;-59
2022/03/16 05:56:13;;;;;;;8.35;7.57;;;9.90;99.90;;;;;;5036350;28;20519;-58
2022/03/16 05:58:40;;;;;;;8.88;8.07;;;10.00;99.90;;;;;;5052032;28;20114;-59
2022/03/16 06:01:07;;;;;;;7.47;6.78;;;9.90;99.90;;;;;;5060183;28;20132;-59
2022/03/16 06:03:34;;;;;;;8.25;7.45;;;9.90;99.90;;;;;;5051031;28;20052;-59
2022/03/16 06:06:02;;;;;;;7.95;7.25;;;9.90;99.90;;;;;;5051114;28;20095;-59
2022/03/16 06:08:28;;;;;;;7.88;7.07;;;9.90;99.90;;;;;;5061428;28;20103;-60
2022/03/16 06:10:55;;;;;;;7.57;6.70;;;10.00;99.90;;;;;;5053178;28;20540;-59
2022/03/16 06:13:23;;;;;;;7.45;6.75;;;10.00;99.90;;;;;;5052233;28;20166;-60
2022/03/16 06:15:49;;;;;;;7.93;7.22;;;10.00;99.90;;;;;;5049205;28;20149;-59
2022/03/16 06:18:16;;;;;;;7.82;7.07;;;10.00;99.90;;;;;;5048352;28;20041;-60
2022/03/16 06:20:43;;;;;;;7.80;7.10;;;10.00;99.90;;;;;;5048697;28;20215;-59
2022/03/16 06:23:10;;;;;;;9.68;8.77;;;10.10;99.90;;;;;;5050356;28;20416;-59
2022/03/16 06:25:39;;;;;;;8.98;8.18;;;10.10;99.90;;;;;;5049912;28;20232;-60
2022/03/16 06:28:06;;;;;;;7.88;7.07;;;10.10;99.90;;;;;;5056677;28;20546;-60
2022/03/16 06:30:32;;;;;;;8.52;7.72;;;10.10;99.90;;;;;;5058227;28;20103;-59
2022/03/16 06:32:59;;;;;;;8.88;7.97;;;10.10;99.90;;;;;;5053536;28;20048;-60
2022/03/16 06:35:26;;;;;;;9.65;8.75;;;10.10;99.90;;;;;;5055527;28;20091;-59
2022/03/16 06:37:53;;;;;;;9.82;8.93;;;10.10;99.90;;;;;;5049926;28;20544;-59
2022/03/16 06:40:19;;;;;;;9.68;8.77;;;10.00;99.90;;;;;;5050113;28;20084;-58
2022/03/16 06:42:47;;;;;;;8.95;8.15;;;10.00;99.90;;;;;;5061720;28;20084;-58
2022/03/16 06:45:15;;;;;;;9.00;8.20;;;10.00;99.90;;;;;;5036724;28;20508;-59
2022/03/16 06:47:41;;;;;;;9.73;8.82;;;10.00;99.90;;;;;;5049768;28;20058;-58
2022/03/16 06:50:09;;;;;;;10.50;9.55;;;10.00;99.90;;;;;;5051574;28;20084;-60
2022/03/16 06:52:36;;;;;;;8.75;7.95;;;10.10;99.90;;;;;;5056413;28;20084;-60
2022/03/16 06:55:03;;;;;;;9.40;8.50;;;10.00;99.90;;;;;;5059938;28;20178;-59
2022/03/16 06:57:29;;;;;;;10.05;8.82;;;10.10;99.90;;;;;;5057906;28;20087;-59
2022/03/16 07:00:00;;;;;;;9.90;9.00;;;10.00;99.90;;;;;;5050667;28;20460;-59
2022/03/16 07:02:26;;;;;;;10.55;9.60;;;10.00;99.90;;;;;;5051923;28;20102;-60
2022/03/16 07:04:53;;;;;;;9.50;8.60;;;10.00;99.90;;;;;;5057256;28;20060;-60
2022/03/16 07:07:20;;;;;;;9.98;9.05;;;10.10;99.90;;;;;;5053449;28;20497;-60
2022/03/16 07:09:47;;;;;;;8.55;7.75;;;10.10;99.90;;;;;;5057092;28;20052;-60
2022/03/16 07:12:13;;;;;;;8.90;8.00;;;10.20;99.90;;;;;;5055102;28;20492;-60
2022/03/16 07:14:40;;;;;;;9.27;8.38;;;10.30;99.90;;;;;;5047732;28;20080;-60
2022/03/16 07:17:07;;;;;;;8.57;7.78;;;10.30;99.90;;;;;;5046841;28;20123;-60
2022/03/16 07:19:34;;;;;;;8.23;7.53;;;10.30;99.90;;;;;;5053546;28;20061;-59
2022/03/16 07:22:01;;;;;;;8.35;7.55;;;10.40;99.90;;;;;;5048983;28;20572;-60
2022/03/16 07:24:28;;;;;;;8.27;7.47;;;10.40;99.90;;;;;;5059039;28;20161;-59
2022/03/16 07:26:55;;;;;;;8.93;8.02;;;10.40;99.90;;;;;;5058764;28;20136;-60
2022/03/16 07:29:22;;;;;;;7.40;6.70;;;10.40;99.90;;;;;;5059498;28;20131;-59
2022/03/16 07:31:49;;;;;;;7.95;7.20;;;10.50;99.90;;;;;;5060225;28;20091;-60
2022/03/16 07:34:16;;;;;;;7.32;6.63;;;10.50;99.90;;;;;;5058915;28;20072;-60
2022/03/16 07:36:43;;;;;;;7.97;7.28;;;10.60;99.90;;;;;;5059347;28;20045;-60
2022/03/16 07:39:11;;;;;;;7.70;6.97;;;10.60;99.90;;;;;;5060188;28;20140;-60
2022/03/16 07:41:38;;;;;;;7.60;6.90;;;10.70;99.90;;;;;;5041021;28;20045;-60
2022/03/16 07:44:05;;;;;;;7.70;7.00;;;10.80;99.90;;;;;;5057026;28;20056;-60
2022/03/16 07:46:32;;;;;;;7.53;6.82;;;10.80;99.90;;;;;;5060076;28;20045;-60
2022/03/16 07:48:59;;;;;;;8.05;7.25;;;10.80;99.90;;;;;;5058963;28;20059;-60
2022/03/16 07:51:26;;;;;;;7.68;6.97;;;10.80;99.90;;;;;;5059413;28;20128;-56
2022/03/16 07:53:53;;;;;;;7.70;6.90;;;10.80;99.90;;;;;;5042359;28;20291;-60
2022/03/16 07:56:19;;;;;;;7.80;7.03;;;10.90;99.90;;;;;;5042550;28;20143;-60
2022/03/16 07:58:46;;;;;;;7.25;6.65;;;10.80;99.90;;;;;;5060303;28;20136;-59
2022/03/16 08:01:13;;;;;;;7.43;6.72;;;10.90;99.90;;;;;;5060010;28;20515;-60
2022/03/16 08:03:40;;;;;;;8.15;7.45;;;10.90;99.90;;;;;;5058513;28;20059;-59
2022/03/16 08:06:07;;;;;;;7.20;6.55;;;11.00;99.90;;;;;;5059392;28;20105;-60
2022/03/16 08:08:39;;;;;;;6.70;6.10;;;11.00;99.90;;;;;;5059236;28;20555;-60
2022/03/16 08:11:06;;;;;;;6.95;6.35;;;11.10;99.90;;;;;;5059705;28;20048;-60
2022/03/16 08:13:34;;;;;;;7.82;7.13;;;11.20;99.90;;;;;;5047864;28;20179;-60
2022/03/16 08:16:01;;;;;;;7.72;7.03;;;11.20;99.90;;;;;;5045114;28;20130;-60
2022/03/16 08:18:29;;;;;;;7.72;7.03;;;11.30;99.90;;;;;;5049840;28;20052;-60
2022/03/16 08:20:56;;;;;;;7.63;6.82;;;11.30;99.90;;;;;;5024049;28;20470;-60
2022/03/16 08:23:23;;;;;;;7.18;6.50;;;11.30;99.90;;;;;;5042700;28;20155;-60
2022/03/16 08:25:52;;;;;;;7.22;6.53;;;11.30;99.90;;;;;;5055523;28;20438;-60
2022/03/16 08:28:19;;;;;;;8.10;7.30;;;11.30;99.90;;;;;;5057542;28;20128;-60
2022/03/16 08:30:46;;;;;;;6.97;6.28;;;11.30;99.90;;;;;;5059489;28;20121;-60
2022/03/16 08:33:13;;;;;;;6.78;6.18;;;11.30;99.90;;;;;;5058444;28;20146;-60
2022/03/16 08:35:39;;;;;;;8.20;7.40;;;11.30;99.90;;;;;;5058657;28;20096;-60
2022/03/16 08:38:06;;;;;;;7.55;6.85;;;11.30;99.90;;;;;;5059680;28;20159;-59
2022/03/16 08:40:34;;;;;;;7.65;6.95;;;11.30;99.90;;;;;;5055081;28;20049;-60
2022/03/16 08:43:00;;;;;;;7.68;6.90;;;11.30;99.90;;;;;;5047349;28;20512;-60
2022/03/16 08:45:27;;;;;;;6.65;5.95;;;11.30;99.90;;;;;;5059104;28;20151;-60
2022/03/16 08:47:54;;;;;;;6.80;6.10;;;11.30;99.90;;;;;;5059022;28;20087;-59
2022/03/16 08:50:21;;;;;;;6.80;6.20;;;11.30;99.90;;;;;;5052440;28;20156;-60
2022/03/16 08:52:49;;;;;;;6.53;5.93;;;11.20;99.90;;;;;;5051280;28;20052;-60
2022/03/16 08:55:16;;;;;;;7.07;6.38;;;11.20;99.90;;;;;;5058743;28;20514;-60
2022/03/16 08:57:43;;;;;;;7.35;6.57;;;11.20;99.90;;;;;;5039406;28;20110;-59
2022/03/16 09:00:18;;;;;;;6.82;6.15;;;11.10;99.90;;;;;;5042806;28;20123;-60
2022/03/16 09:02:45;;;;;;;6.35;5.75;;;11.10;99.90;;;;;;5043701;28;20052;-61
2022/03/16 09:05:15;;;;;;;7.10;6.40;;;11.20;99.90;;;;;;5050363;28;20088;-60
2022/03/16 09:07:41;;;;;;;6.65;6.05;;;11.20;99.90;;;;;;5039062;28;20178;-60
2022/03/16 09:10:08;;;;;;;7.13;6.43;;;11.30;99.90;;;;;;5054713;28;20629;-60
2022/03/16 09:12:36;;;;;;;6.55;5.95;;;11.30;99.90;;;;;;5058704;28;20052;-60
2022/03/16 09:15:03;;;;;;;6.63;6.03;;;11.30;99.90;;;;;;5051077;28;20048;-60
2022/03/16 09:17:30;;;;;;;8.07;6.63;;;11.30;99.90;;;;;;5048161;28;20079;-60
2022/03/16 09:19:58;;;;;;;9.13;7.15;;;11.30;99.90;;;;;;5040959;28;20052;-60
2022/03/16 09:22:24;;;;;;;7.43;6.72;;;11.30;99.90;;;;;;5041645;28;20629;-60
2022/03/16 09:24:51;;;;;;;7.57;6.88;;;11.30;99.90;;;;;;5040610;28;20057;-60
2022/03/16 09:27:19;;;;;;;6.97;6.22;;;11.30;99.90;;;;;;5038309;28;20063;-60
2022/03/16 09:29:46;;;;;;;6.90;6.30;;;11.30;99.90;;;;;;5050186;28;20084;-60
2022/03/16 09:32:13;;;;;;;7.30;6.13;;;11.30;99.90;;;;;;5058294;28;20854;-60
2022/03/16 09:34:41;;;;;;;8.10;6.80;;;11.40;99.90;;;;;;5057597;28;20052;-59
2022/03/16 09:37:09;;;;;;;8.13;6.22;;;11.40;99.90;;;;;;5047812;28;20411;-60
2022/03/16 09:39:37;;;;;;;6.78;6.18;;;11.40;99.90;;;;;;5053680;28;20048;-60
2022/03/16 09:42:04;;;;;;;6.90;6.22;;;11.50;99.90;;;;;;5055505;28;20088;-59
2022/03/16 09:44:31;;;;;;;6.78;6.07;;;11.60;99.90;;;;;;5055453;28;20567;-59
2022/03/16 09:46:59;;;;;;;7.25;6.55;;;11.60;99.90;;;;;;5035210;28;20053;-60
2022/03/16 09:49:26;;;;;;;6.80;6.20;;;11.60;99.90;;;;;;5029153;28;20080;-59
2022/03/16 09:51:54;;;;;;;6.60;6.00;;;11.60;99.90;;;;;;5057805;28;20055;-60
2022/03/16 09:54:22;;;;;;;6.18;5.65;;;11.70;99.90;;;;;;5057833;28;20152;-59
2022/03/16 09:56:49;;;;;;;6.50;5.90;;;11.60;99.90;;;;;;5040093;28;20064;-61
2022/03/16 09:59:16;;;;;;;6.80;6.18;;;11.60;99.90;;;;;;5057868;28;20140;-59
2022/03/16 10:01:43;;;;;;;7.03;6.40;;;11.60;99.90;;;;;;5023796;28;20084;-59
2022/03/16 10:04:10;;;;;;;6.28;5.68;;;11.60;99.90;;;;;;5044254;28;20053;-59
2022/03/16 10:06:42;;;;;;;7.13;6.30;;;11.60;99.90;;;;;;5038402;28;20132;-59
2022/03/16 10:15:01;;;;;;;6.43;5.82;;;11.70;99.90;;;;;;5061488;28;20048;-59
2022/03/16 10:17:43;;;;;;;6.50;5.90;;;11.80;99.90;;;;;;5061913;28;20059;-59
2022/03/16 10:20:22;;;;;;;6.60;6.00;;;11.80;99.90;;;;;;5060892;28;20049;-59
2022/03/16 10:23:08;;;;;;;6.15;5.55;;;11.70;99.90;;;;;;5061651;28;20084;-59
2022/03/16 10:25:39;;;;;;;6.88;5.93;;;11.70;99.90;;;;;;5059571;28;20132;-60
2022/03/16 10:28:13;;;;;;;6.88;6.28;;;11.60;99.90;;;;;;5042227;28;20148;-59
2022/03/16 10:30:57;;;;;;;7.00;6.30;;;11.60;99.90;;;;;;5053835;28;20126;-60
2022/03/16 10:33:33;;;;;;;7.65;6.95;;;11.50;99.90;;;;;;5052960;28;20414;-59
2022/03/16 10:36:07;;;;;;;6.78;6.18;;;11.40;99.90;;;;;;5059154;28;20071;-60
2022/03/16 10:38:45;;;;;;;7.43;6.72;;;11.50;99.90;;;;;;5059014;28;20563;-59
2022/03/16 10:47:02;;;;;;;6.68;5.97;;;11.70;99.90;;;;;;5051425;28;20045;-59
2022/03/16 10:49:30;;;;;;;7.00;6.22;;;11.80;99.90;;;;;;5052942;28;20069;-59
2022/03/16 10:52:19;;;;;;;7.15;6.45;;;11.80;99.90;;;;;;5045154;28;20442;-60
2022/03/16 10:54:48;;;;;;;5.97;5.38;;;11.80;99.90;;;;;;5064437;28;20446;-59
2022/03/16 10:57:15;;;;;;;7.75;6.05;;;11.90;99.90;;;;;;5060957;28;20407;-60
2022/03/16 10:59:42;;;;;;;7.10;6.38;;;12.00;99.90;;;;;;5058677;28;20068;-59
2022/03/16 11:02:12;;;;;;;7.03;6.32;;;11.90;99.90;;;;;;5060775;28;20441;-60
2022/03/16 11:04:50;;;;;;;7.32;6.63;;;12.00;99.90;;;;;;5051874;28;20653;-59
2022/03/16 11:07:19;;;;;;;7.00;6.40;;;12.10;99.90;;;;;;5042848;28;20833;-60
2022/03/16 11:09:46;;;;;;;7.47;6.07;;;12.10;99.90;;;;;;5013337;28;20118;-59
2022/03/16 11:15:01;;;;;;;6.43;5.82;;;12.30;99.90;;;;;;5047981;28;20056;-60
2022/03/16 11:17:30;;;;;;;7.28;6.57;;;12.30;99.90;;;;;;5041284;28;20056;-60
2022/03/16 11:19:57;;;;;;;7.80;7.10;;;12.40;99.90;;;;;;5055086;28;20048;-59
2022/03/16 11:22:33;;;;;;;8.52;7.72;;;12.50;99.90;;;;;;5055271;28;20136;-60
2022/03/16 11:25:01;;;;;;;7.78;7.07;;;12.50;99.90;;;;;;5033723;28;20052;-60
2022/03/16 11:27:47;;;;;;;7.32;6.63;;;12.60;99.90;;;;;;5057909;28;20156;-60
2022/03/16 11:30:29;;;;;;;7.55;5.97;;;12.80;99.90;;;;;;5047366;28;20079;-59
2022/03/16 11:33:01;;;;;;;6.43;5.82;;;13.00;99.90;;;;;;5046618;28;20936;-60
2022/03/16 11:35:32;;;;;;;6.95;6.25;;;13.00;99.90;;;;;;5058267;28;20129;-60
2022/03/16 11:38:00;;;;;;;7.53;6.65;;;13.00;99.90;;;;;;5057765;28;20098;-60
2022/03/16 11:40:28;;;;;;;6.80;6.20;;;13.10;99.90;;;;;;5050917;28;20088;-60
2022/03/16 11:43:24;;;;;;;6.78;5.97;;;13.10;99.90;;;;;;5015962;28;20084;-60
2022/03/16 11:45:57;;;;;;;7.22;6.53;;;13.20;99.90;;;;;;5028882;28;20392;-60
2022/03/16 11:54:00;;;;;;;6.65;6.05;;;13.10;99.90;;;;;;5051149;28;20048;-60
2022/03/16 11:56:29;;;;;;;6.65;6.05;;;13.20;99.90;;;;;;5054352;28;20076;-60
2022/03/16 11:58:57;;;;;;;6.55;5.88;;;13.20;99.90;;;;;;5056994;28;20140;-60
2022/03/16 12:01:31;;;;;;;6.80;6.20;;;13.10;99.90;;;;;;5042307;28;20687;-60
2022/03/16 12:04:15;;;;;;;7.35;6.65;;;13.10;99.90;;;;;;5052330;28;20712;-60
2022/03/16 12:07:00;;;;;;;6.93;6.25;;;13.00;99.90;;;;;;5042895;28;20068;-60
2022/03/16 12:09:46;;;;;;;6.00;5.50;;;13.00;99.90;;;;;;5053942;28;21622;-60
2022/03/16 12:15:32;;;;;;;5.75;5.25;;;13.20;99.90;;;;;;5045649;28;20113;-60
2022/03/16 12:17:59;;;;;;;6.07;5.50;;;13.30;99.90;;;;;;5035983;28;20048;-60
2022/03/16 12:20:49;;;;;;;6.35;5.75;;;13.40;99.90;;;;;;5055098;28;20147;-60
2022/03/16 12:23:18;;;;;;;6.38;5.82;;;13.30;99.90;;;;;;5034248;28;20084;-60
2022/03/16 12:25:47;;;;;;;6.43;5.82;;;13.30;99.90;;;;;;5040070;28;20675;-60
2022/03/16 12:31:16;;;;;;;6.80;5.90;;;13.20;99.90;;;;;;5043889;28;20454;-60
2022/03/16 12:33:56;;;;;;;7.38;5.72;;;13.10;99.90;;;;;;5040768;28;20102;-60
2022/03/16 12:36:30;;;;;;;6.72;6.13;;;13.00;99.90;;;;;;5041874;28;20051;-60
2022/03/16 12:38:59;;;;;;;6.90;6.20;;;12.90;99.90;;;;;;5048848;28;20527;-60
2022/03/16 12:44:13;;;;;;;6.70;6.05;;;12.80;99.90;;;;;;5042000;28;20063;-60
2022/03/16 12:46:53;;;;;;;6.78;6.18;;;12.80;99.90;;;;;;5058604;28;20074;-60
2022/03/16 12:49:22;;;;;;;6.40;5.80;;;12.70;99.90;;;;;;5037905;28;20120;-59
2022/03/16 12:51:59;;;;;;;6.80;6.10;;;12.80;99.90;;;;;;5053038;28;20423;-60
2022/03/16 12:54:28;;;;;;;7.65;6.88;;;12.70;99.90;;;;;;5045591;28;20087;-59
2022/03/16 12:57:06;;;;;;;7.20;6.50;;;12.80;99.90;;;;;;5052918;28;20534;-60
2022/03/16 12:59:36;;;;;;;7.53;6.82;;;12.80;99.90;;;;;;5058246;28;20139;-60
2022/03/16 13:02:08;;;;;;;7.30;6.57;;;12.70;99.90;;;;;;5054555;28;20524;-60
2022/03/16 13:04:35;;;;;;;8.20;6.65;;;12.70;99.90;;;;;;5047676;28;20808;-59
2022/03/16 13:07:02;;;;;;;6.75;6.15;;;12.80;99.90;;;;;;5057726;28;20164;-60
2022/03/16 13:09:36;;;;;;;7.30;6.43;;;12.80;99.90;;;;;;5044280;28;20053;-60
2022/03/16 13:12:10;;;;;;;6.97;6.28;;;12.90;99.90;;;;;;5045838;28;20511;-60
2022/03/16 13:14:40;;;;;;;7.78;6.45;;;12.90;99.90;;;;;;5041463;28;20500;-60
2022/03/16 13:17:07;;;;;;;6.93;6.30;;;13.00;99.90;;;;;;5032767;28;20064;-60
2022/03/16 13:19:36;;;;;;;6.90;6.20;;;13.00;99.90;;;;;;5032822;28;20075;-60
2022/03/16 13:22:08;;;;;;;6.57;5.88;;;13.00;99.90;;;;;;5046908;28;20057;-60
2022/03/16 13:24:42;;;;;;;7.47;6.70;;;13.00;99.90;;;;;;5056737;28;20572;-60